createdAt,value
2018-10-16T00:00:24.673Z,13.20
2018-10-16T00:03:27.571Z,13.10
2018-10-16T00:06:31.075Z,12.80
2018-10-16T00:09:34.666Z,12.80
2018-10-16T00:12:37.634Z,12.70
2018-10-16T00:15:40.478Z,12.70
2018-10-16T00:18:43.691Z,12.70
2018-10-16T00:21:46.499Z,12.60
2018-10-16T00:24:49.325Z,12.60
2018-10-16T00:27:52.182Z,12.60
2018-10-16T00:30:55.193Z,12.50
2018-10-16T00:33:57.963Z,12.50
2018-10-16T00:37:00.776Z,12.50
2018-10-16T00:40:03.770Z,12.50
2018-10-16T00:43:06.979Z,12.50
2018-10-16T00:46:09.832Z,12.40
2018-10-16T00:49:12.619Z,12.40
2018-10-16T00:52:16.327Z,12.40
2018-10-16T00:55:19.755Z,12.30
2018-10-16T00:58:23.594Z,12.30
2018-10-16T01:01:32.329Z,12.30
2018-10-16T01:04:35.080Z,12.20
2018-10-16T01:07:38.148Z,12.30
2018-10-16T01:10:40.930Z,12.20
2018-10-16T01:13:43.787Z,12.30
2018-10-16T01:16:46.867Z,12.30
2018-10-16T01:19:49.742Z,12.30
2018-10-16T01:22:52.505Z,12.30
2018-10-16T01:25:55.285Z,12.30
2018-10-16T01:28:58.028Z,12.40
2018-10-16T01:32:00.968Z,12.40
2018-10-16T01:35:05.167Z,12.40
2018-10-16T01:38:08.546Z,12.50
2018-10-16T01:41:11.427Z,12.40
2018-10-16T01:44:14.248Z,12.40
2018-10-16T01:47:17.118Z,12.40
2018-10-16T01:50:20.028Z,12.50
2018-10-16T01:53:22.990Z,12.50
2018-10-16T01:56:27.038Z,12.50
2018-10-16T01:59:29.873Z,12.40
2018-10-16T02:02:32.749Z,12.40
2018-10-16T02:05:36.059Z,12.50
2018-10-16T02:08:39.229Z,12.40
2018-10-16T02:11:42.127Z,12.40
2018-10-16T02:14:45.040Z,12.40
2018-10-16T02:17:48.632Z,12.40
2018-10-16T02:20:51.572Z,12.30
2018-10-16T02:23:54.438Z,12.40
2018-10-16T02:26:57.367Z,12.40
2018-10-16T02:30:00.571Z,12.40
2018-10-16T02:33:03.656Z,12.40
2018-10-16T02:36:07.192Z,12.40
2018-10-16T02:39:10.943Z,12.40
2018-10-16T02:42:13.831Z,12.40
2018-10-16T02:45:17.002Z,12.30
2018-10-16T02:48:20.440Z,12.30
2018-10-16T02:51:24.109Z,12.30
2018-10-16T02:54:27.545Z,12.30
2018-10-16T02:57:30.331Z,12.20
2018-10-16T03:00:33.572Z,12.30
2018-10-16T03:03:38.714Z,12.30
2018-10-16T03:06:41.480Z,12.30
2018-10-16T03:09:44.304Z,12.30
2018-10-16T03:12:47.246Z,12.40
2018-10-16T03:15:50.153Z,12.30
2018-10-16T03:18:53.676Z,12.30
2018-10-16T03:21:56.507Z,12.30
2018-10-16T03:24:59.346Z,12.20
2018-10-16T03:28:02.753Z,12.10
2018-10-16T03:31:05.619Z,12.10
2018-10-16T03:34:09.111Z,12.10
2018-10-16T03:37:11.883Z,12.00
2018-10-16T03:40:14.782Z,12.00
2018-10-16T03:43:17.589Z,11.90
2018-10-16T03:46:20.896Z,11.90
2018-10-16T03:49:24.608Z,11.90
2018-10-16T03:52:27.409Z,11.90
2018-10-16T03:55:30.129Z,11.80
2018-10-16T03:58:33.058Z,11.80
2018-10-16T04:01:35.812Z,11.80
2018-10-16T04:04:38.826Z,11.80
2018-10-16T04:07:42.305Z,11.80
2018-10-16T04:10:45.180Z,11.90
2018-10-16T04:13:49.021Z,11.90
2018-10-16T04:16:52.133Z,12.00
2018-10-16T04:19:55.194Z,12.00
2018-10-16T04:22:58.696Z,12.00
2018-10-16T04:26:01.623Z,12.00
2018-10-16T04:29:05.344Z,12.00
2018-10-16T04:32:08.256Z,11.90
2018-10-16T04:35:14.086Z,11.90
2018-10-16T04:38:16.983Z,11.90
2018-10-16T04:41:20.584Z,11.90
2018-10-16T04:44:23.518Z,11.90
2018-10-16T04:47:26.369Z,11.90
2018-10-16T04:50:29.264Z,11.90
2018-10-16T04:53:32.199Z,11.90
2018-10-16T04:56:35.672Z,12.00
2018-10-16T04:59:38.454Z,11.90
2018-10-16T05:02:41.879Z,11.90
2018-10-16T05:05:44.818Z,11.90
2018-10-16T05:08:47.688Z,11.90
2018-10-16T05:11:52.227Z,11.80
2018-10-16T05:14:55.636Z,11.80
2018-10-16T05:17:58.659Z,11.80
2018-10-16T05:21:01.467Z,11.80
2018-10-16T05:24:05.339Z,11.80
2018-10-16T05:27:08.241Z,11.80
2018-10-16T05:30:11.542Z,11.80
2018-10-16T05:33:14.342Z,11.70
2018-10-16T05:36:17.119Z,11.80
2018-10-16T05:39:20.389Z,11.80
2018-10-16T05:42:23.332Z,11.80
2018-10-16T05:45:27.812Z,11.80
2018-10-16T05:48:30.727Z,11.80
2018-10-16T05:51:33.607Z,11.80
2018-10-16T05:54:36.554Z,11.90
2018-10-16T05:57:39.531Z,11.90
2018-10-16T06:00:45.767Z,11.90
2018-10-16T06:03:48.585Z,11.90
2018-10-16T06:06:52.000Z,12.00
2018-10-16T06:09:54.793Z,12.00
2018-10-16T06:12:57.628Z,12.00
2018-10-16T06:16:00.474Z,12.10
2018-10-16T06:19:04.400Z,12.10
2018-10-16T06:22:07.434Z,12.20
2018-10-16T06:25:10.450Z,12.20
2018-10-16T06:28:17.376Z,12.30
2018-10-16T06:31:21.263Z,12.30
2018-10-16T06:34:23.991Z,12.30
2018-10-16T06:37:27.003Z,12.30
2018-10-16T06:40:32.473Z,12.30
2018-10-16T06:43:36.593Z,12.40
2018-10-16T06:46:39.422Z,12.50
2018-10-16T06:49:42.070Z,12.50
2018-10-16T06:52:44.861Z,12.50
2018-10-16T06:55:47.635Z,12.60
2018-10-16T06:58:50.415Z,12.60
2018-10-16T07:01:53.882Z,12.70
2018-10-16T07:04:57.075Z,12.70
2018-10-16T07:07:59.828Z,12.70
2018-10-16T07:11:02.875Z,12.70
2018-10-16T07:14:08.231Z,12.70
2018-10-16T07:17:15.752Z,12.70
2018-10-16T07:20:18.621Z,12.80
2018-10-16T07:23:22.602Z,12.90
2018-10-16T07:26:25.336Z,12.90
2018-10-16T07:29:28.239Z,12.90
2018-10-16T07:32:33.337Z,12.90
2018-10-16T07:35:36.117Z,13.00
2018-10-16T07:38:39.031Z,13.00
2018-10-16T07:41:42.158Z,13.00
2018-10-16T07:44:45.001Z,13.00
2018-10-16T07:47:47.822Z,13.00
2018-10-16T07:50:50.730Z,13.00
2018-10-16T07:53:53.529Z,13.00
2018-10-16T07:56:56.575Z,13.10
2018-10-16T07:59:59.877Z,13.10
2018-10-16T08:03:03.513Z,13.20
2018-10-16T08:06:06.917Z,13.20
2018-10-16T08:09:14.446Z,13.30
2018-10-16T08:12:17.189Z,13.40
2018-10-16T08:15:20.520Z,13.50
2018-10-16T08:18:23.476Z,13.60
2018-10-16T08:21:26.239Z,13.70
2018-10-16T08:24:29.459Z,13.70
2018-10-16T08:27:32.312Z,13.70
2018-10-16T08:30:35.048Z,13.70
2018-10-16T08:33:37.685Z,13.80
2018-10-16T08:36:40.525Z,13.90
2018-10-16T08:39:43.660Z,14.00
2018-10-16T08:42:58.484Z,14.10
2018-10-16T08:46:12.587Z,14.10
2018-10-16T08:49:26.708Z,14.20
2018-10-16T08:52:29.488Z,14.40
2018-10-16T08:55:32.623Z,14.50
2018-10-16T08:58:35.431Z,14.70
2018-10-16T09:01:38.248Z,14.80
2018-10-16T09:04:41.368Z,14.90
2018-10-16T09:07:47.618Z,15.00
2018-10-16T09:10:50.568Z,15.10
2018-10-16T09:13:53.350Z,15.10
2018-10-16T09:16:56.208Z,15.20
2018-10-16T09:19:59.009Z,15.30
2018-10-16T09:23:01.854Z,15.30
2018-10-16T09:26:05.042Z,15.30
2018-10-16T09:29:07.890Z,15.40
2018-10-16T09:32:11.349Z,15.40
2018-10-16T09:35:15.286Z,15.50
2018-10-16T09:38:18.117Z,15.50
2018-10-16T09:41:21.400Z,15.40
2018-10-16T09:44:27.900Z,15.50
2018-10-16T09:47:30.820Z,15.50
2018-10-16T09:50:33.695Z,15.70
2018-10-16T09:53:36.943Z,15.90
2018-10-16T09:56:39.896Z,16.00
2018-10-16T09:59:42.979Z,16.00
2018-10-16T10:02:45.943Z,16.30
2018-10-16T10:05:52.240Z,16.60
2018-10-16T10:08:56.759Z,16.80
2018-10-16T10:11:59.688Z,16.80
2018-10-16T10:15:02.841Z,16.90
2018-10-16T10:18:05.753Z,17.00
2018-10-16T10:21:08.536Z,17.00
2018-10-16T10:24:11.437Z,16.80
2018-10-16T10:27:16.109Z,16.70
2018-10-16T10:30:24.008Z,16.70
2018-10-16T10:33:27.501Z,16.70
2018-10-16T10:36:30.395Z,16.70
2018-10-16T10:39:33.095Z,16.80
2018-10-16T10:42:35.744Z,16.80
2018-10-16T10:45:39.190Z,17.10
2018-10-16T10:48:42.288Z,17.30
2018-10-16T10:51:46.425Z,17.60
2018-10-16T10:54:50.278Z,17.20
2018-10-16T10:57:53.191Z,17.00
2018-10-16T11:00:55.972Z,16.80
2018-10-16T11:03:59.253Z,16.90
2018-10-16T11:07:02.350Z,17.10
2018-10-16T11:10:08.133Z,17.50
2018-10-16T11:13:11.248Z,17.50
2018-10-16T11:16:15.315Z,17.60
2018-10-16T11:19:18.584Z,17.60
2018-10-16T11:22:22.131Z,17.40
2018-10-16T11:25:25.962Z,17.30
2018-10-16T11:28:29.116Z,17.20
2018-10-16T11:31:32.089Z,17.30
2018-10-16T11:34:35.319Z,17.50
2018-10-16T11:37:38.113Z,17.50
2018-10-16T11:40:42.958Z,17.50
2018-10-16T11:43:46.029Z,17.70
2018-10-16T11:46:48.956Z,17.80
2018-10-16T11:49:52.114Z,17.60
2018-10-16T11:52:55.030Z,17.70
2018-10-16T11:55:57.752Z,17.50
2018-10-16T11:59:00.482Z,17.60
2018-10-16T12:02:04.072Z,17.60
2018-10-16T12:05:06.944Z,17.50
2018-10-16T12:08:10.089Z,17.30
2018-10-16T12:11:12.882Z,17.40
2018-10-16T12:14:15.634Z,17.50
2018-10-16T12:17:31.218Z,17.60
2018-10-16T12:20:36.989Z,17.70
2018-10-16T12:23:39.967Z,17.80
2018-10-16T12:26:42.830Z,17.30
2018-10-16T12:29:45.903Z,16.90
2018-10-16T12:32:48.700Z,16.70
2018-10-16T12:35:51.449Z,16.70
2018-10-16T12:38:54.843Z,16.80
2018-10-16T12:41:57.671Z,16.90
2018-10-16T12:45:01.077Z,16.90
2018-10-16T12:48:05.809Z,17.10
2018-10-16T12:51:08.624Z,17.00
2018-10-16T12:54:11.466Z,16.90
2018-10-16T12:57:14.761Z,17.00
2018-10-16T13:00:17.780Z,16.90
2018-10-16T13:03:20.573Z,16.80
2018-10-16T13:06:23.425Z,16.70
2018-10-16T13:09:31.358Z,16.80
2018-10-16T13:12:34.260Z,17.00
2018-10-16T13:15:37.993Z,17.10
2018-10-16T13:18:43.242Z,17.10
2018-10-16T13:21:45.953Z,17.10
2018-10-16T13:24:48.740Z,17.20
2018-10-16T13:27:51.644Z,17.20
2018-10-16T13:30:54.491Z,17.20
2018-10-16T13:33:57.898Z,17.10
2018-10-16T13:37:00.814Z,17.10
2018-10-16T13:40:04.215Z,17.10
2018-10-16T13:43:06.947Z,17.10
2018-10-16T13:46:12.379Z,17.00
2018-10-16T13:49:15.072Z,16.90
2018-10-16T13:52:18.082Z,16.70
2018-10-16T13:55:21.654Z,16.50
2018-10-16T13:58:24.949Z,16.40
2018-10-16T14:01:28.327Z,16.30
2018-10-16T14:04:31.168Z,16.20
2018-10-16T14:07:34.218Z,16.10
2018-10-16T14:14:05.961Z,15.90
2018-10-16T14:17:09.078Z,15.80
2018-10-16T14:20:12.029Z,15.80
2018-10-16T14:23:14.750Z,15.80
2018-10-16T14:26:18.007Z,15.70
2018-10-16T14:29:22.564Z,15.70
2018-10-16T14:32:25.577Z,15.60
2018-10-16T14:35:28.244Z,15.50
2018-10-16T14:38:31.553Z,15.40
2018-10-16T14:41:34.248Z,15.40
2018-10-16T14:44:37.251Z,15.30
2018-10-16T14:47:40.084Z,15.30
2018-10-16T14:50:43.026Z,15.30
2018-10-16T14:53:45.842Z,15.30
2018-10-16T14:56:48.889Z,15.20
2018-10-16T14:59:51.587Z,15.20
2018-10-16T15:02:54.609Z,15.10
2018-10-16T15:05:57.342Z,15.10
2018-10-16T15:09:00.050Z,15.10
2018-10-16T15:12:03.179Z,15.10
2018-10-16T15:15:07.436Z,15.00
2018-10-16T15:18:10.260Z,15.10
2018-10-16T15:21:13.362Z,15.10
2018-10-16T15:24:16.173Z,15.00
2018-10-16T15:27:21.120Z,15.00
2018-10-16T15:30:23.877Z,15.10
2018-10-16T15:33:27.018Z,15.00
2018-10-16T15:36:29.942Z,15.00
2018-10-16T15:39:32.652Z,15.00
2018-10-16T15:42:35.461Z,15.00
2018-10-16T15:45:38.428Z,15.00
2018-10-16T15:48:41.502Z,14.90
2018-10-16T15:51:44.296Z,14.80
2018-10-16T15:54:47.323Z,14.80
2018-10-16T15:57:50.279Z,14.70
2018-10-16T16:00:53.176Z,14.60
2018-10-16T16:03:56.897Z,14.50
2018-10-16T16:07:00.292Z,14.50
2018-10-16T16:10:03.976Z,14.50
2018-10-16T16:13:08.880Z,14.50
2018-10-16T16:16:11.755Z,14.50
2018-10-16T16:19:14.972Z,14.50
2018-10-16T16:22:18.019Z,14.60
2018-10-16T16:25:21.884Z,14.60
2018-10-16T16:28:24.614Z,14.60
2018-10-16T16:31:27.524Z,14.60
2018-10-16T16:34:31.705Z,14.50
2018-10-16T16:37:34.534Z,14.50
2018-10-16T16:40:37.429Z,14.50
2018-10-16T16:43:40.212Z,14.50
2018-10-16T16:46:43.165Z,14.50
2018-10-16T16:49:46.035Z,14.40
2018-10-16T16:52:48.776Z,14.40
2018-10-16T16:55:51.907Z,14.40
2018-10-16T16:58:54.690Z,14.40
2018-10-16T17:01:57.481Z,14.40
2018-10-16T17:05:01.803Z,14.40
2018-10-16T17:08:04.860Z,14.40
2018-10-16T17:11:08.726Z,14.30
2018-10-16T17:14:12.434Z,14.30
2018-10-16T17:17:15.189Z,14.30
2018-10-16T17:20:18.024Z,14.30
2018-10-16T17:23:21.278Z,14.30
2018-10-16T17:26:24.331Z,14.30
2018-10-16T17:29:26.920Z,14.20
2018-10-16T17:32:29.809Z,14.20
2018-10-16T17:35:34.260Z,14.10
2018-10-16T17:38:37.041Z,14.10
2018-10-16T17:41:40.680Z,14.00
2018-10-16T17:44:43.468Z,14.00
2018-10-16T17:47:46.256Z,14.00
2018-10-16T17:50:48.986Z,14.00
2018-10-16T17:53:51.839Z,14.00
2018-10-16T17:56:54.852Z,14.00
2018-10-16T17:59:57.637Z,14.00
2018-10-16T18:03:00.475Z,14.00
2018-10-16T18:06:03.632Z,14.00
2018-10-16T18:09:06.739Z,14.00
2018-10-16T18:12:09.422Z,14.00
2018-10-16T18:15:13.340Z,14.00
2018-10-16T18:18:16.195Z,14.00
2018-10-16T18:21:19.634Z,14.00
2018-10-16T18:24:22.400Z,13.90
2018-10-16T18:27:25.099Z,13.90
2018-10-16T18:30:27.797Z,13.90
2018-10-16T18:33:30.522Z,13.90
2018-10-16T18:36:33.243Z,13.90
2018-10-16T18:39:36.136Z,13.90
2018-10-16T18:42:39.374Z,13.90
2018-10-16T18:45:42.150Z,13.80
2018-10-16T18:48:45.276Z,13.80
2018-10-16T18:51:47.990Z,13.80
2018-10-16T18:54:50.865Z,13.80
2018-10-16T18:57:53.632Z,13.90
2018-10-16T19:00:56.444Z,13.90
2018-10-16T19:03:59.318Z,13.80
2018-10-16T19:07:02.917Z,13.80
2018-10-16T19:10:06.083Z,13.90
2018-10-16T19:13:08.859Z,13.90
2018-10-16T19:16:11.615Z,13.80
2018-10-16T19:19:14.413Z,13.80
2018-10-16T19:22:17.098Z,13.80
2018-10-16T19:25:20.690Z,13.70
2018-10-16T19:28:23.460Z,13.70
2018-10-16T19:31:27.879Z,13.70
2018-10-16T19:34:30.974Z,13.70
2018-10-16T19:37:34.356Z,13.60
2018-10-16T19:40:37.772Z,13.60
2018-10-16T19:43:40.521Z,13.50
2018-10-16T19:46:43.262Z,13.50
2018-10-16T19:49:46.080Z,13.40
2018-10-16T19:52:48.865Z,13.50
2018-10-16T19:55:51.630Z,13.30
2018-10-16T19:58:54.571Z,13.30
2018-10-16T20:01:57.284Z,13.20
2018-10-16T20:05:00.090Z,13.20
2018-10-16T20:08:03.960Z,13.10
2018-10-16T20:11:06.748Z,13.00
2018-10-16T20:14:09.473Z,12.90
2018-10-16T20:17:12.304Z,12.90
2018-10-16T20:20:15.757Z,12.80
2018-10-16T20:23:18.531Z,12.90
2018-10-16T20:26:21.594Z,12.80
2018-10-16T20:29:25.016Z,12.80
2018-10-16T20:32:27.865Z,12.70
2018-10-16T20:35:30.565Z,12.70
2018-10-16T20:38:33.302Z,12.70
2018-10-16T20:41:36.020Z,12.60
2018-10-16T20:44:39.936Z,12.60
2018-10-16T20:47:42.813Z,12.60
2018-10-16T20:50:46.264Z,12.60
2018-10-16T20:53:49.023Z,12.60
2018-10-16T20:56:51.981Z,12.60
2018-10-16T20:59:55.545Z,12.60
2018-10-16T21:02:58.389Z,12.70
2018-10-16T21:06:01.428Z,12.70
2018-10-16T21:09:05.847Z,12.70
2018-10-16T21:12:08.562Z,12.70
2018-10-16T21:15:11.378Z,12.70
2018-10-16T21:18:14.209Z,12.70
2018-10-16T21:21:17.157Z,12.70
2018-10-16T21:24:20.334Z,12.70
2018-10-16T21:27:23.239Z,12.80
2018-10-16T21:30:26.056Z,12.80
2018-10-16T21:33:28.943Z,12.80
2018-10-16T21:36:31.877Z,12.90
2018-10-16T21:39:34.794Z,12.90
2018-10-16T21:42:37.584Z,12.90
2018-10-16T21:45:40.602Z,12.90
2018-10-16T21:48:44.652Z,12.90
2018-10-16T21:51:47.396Z,13.00
2018-10-16T21:54:50.180Z,13.00
2018-10-16T21:57:52.936Z,13.00
2018-10-16T22:01:03.682Z,13.00
2018-10-16T22:04:07.188Z,13.00
2018-10-16T22:07:10.015Z,13.10
2018-10-16T22:10:13.603Z,13.10
2018-10-16T22:13:16.552Z,13.20
2018-10-16T22:16:19.423Z,13.20
2018-10-16T22:19:22.497Z,13.20
2018-10-16T22:22:26.569Z,13.30
2018-10-16T22:25:29.489Z,13.30
2018-10-16T22:28:32.457Z,13.30
2018-10-16T22:31:35.676Z,13.30
2018-10-16T22:34:38.561Z,13.30
2018-10-16T22:37:41.376Z,13.30
2018-10-16T22:40:44.112Z,13.30
2018-10-16T22:43:56.669Z,13.30
2018-10-16T22:46:59.646Z,13.40
2018-10-16T22:50:02.658Z,13.40
2018-10-16T22:53:05.551Z,13.50
2018-10-16T22:56:08.324Z,13.50
2018-10-16T22:59:11.146Z,13.50
2018-10-16T23:02:13.867Z,13.50
2018-10-16T23:05:16.800Z,13.50
2018-10-16T23:08:19.434Z,13.50
2018-10-16T23:11:22.449Z,13.50
2018-10-16T23:14:26.023Z,13.50
2018-10-16T23:17:28.826Z,13.60
2018-10-16T23:20:32.078Z,13.60
2018-10-16T23:23:34.813Z,13.60
2018-10-16T23:26:37.744Z,13.60
2018-10-16T23:29:40.542Z,13.60
2018-10-16T23:32:43.404Z,13.60
2018-10-16T23:35:46.197Z,13.70
2018-10-16T23:38:48.974Z,13.70
2018-10-16T23:41:51.731Z,13.70
2018-10-16T23:44:54.478Z,13.70
2018-10-16T23:47:57.240Z,13.70
2018-10-16T23:51:00.054Z,13.80
2018-10-16T23:54:02.933Z,13.70
2018-10-16T23:57:05.906Z,13.70
